Time;durP1;ratioP1;P1;durP2;ratioP2;P2;SDS_P1;SDS_P2;PMS_P1;PMS_P2;Temp;Humidity;BMP_temperature;BMP_pressure;BME280_temperature;BME280_humidity;BME280_pressure;Samples;Min_cycle;Max_cycle;Signal;HPM_P1;HPM_P2
2023/06/20 00:01:13;;;;;;;10.40;7.78;;;20.60;99.90;20.70;100364.00;;;;4974369;28;88797;-71
2023/06/20 00:03:38;;;;;;;9.77;6.95;;;20.60;99.90;20.60;100375.00;;;;4979380;28;87939;-71
2023/06/20 00:06:04;;;;;;;9.35;6.75;;;20.60;99.90;20.60;100377.00;;;;4974394;28;109793;-71
2023/06/20 00:08:30;;;;;;;10.70;6.88;;;20.50;99.90;20.50;100383.00;;;;4969807;28;109209;-71
2023/06/20 00:10:55;;;;;;;6.45;5.32;;;20.50;99.90;20.50;100371.00;;;;4973865;28;88633;-72
2023/06/20 00:13:21;;;;;;;7.70;5.22;;;20.40;99.90;20.40;100372.00;;;;4976314;28;109938;-71
2023/06/20 00:15:47;;;;;;;8.27;5.63;;;20.30;99.90;20.40;100368.00;;;;4975873;28;108623;-72
2023/06/20 00:18:12;;;;;;;7.00;5.70;;;20.30;99.90;20.30;100363.00;;;;4975323;28;88699;-71
2023/06/20 00:20:38;;;;;;;7.15;5.10;;;20.20;99.90;20.20;100368.00;;;;4975121;28;89040;-71
2023/06/20 00:23:04;;;;;;;8.90;6.25;;;20.10;99.90;20.20;100373.00;;;;4972360;28;87957;-71
2023/06/20 00:25:29;;;;;;;8.68;6.47;;;20.20;99.90;20.20;100368.00;;;;4970327;28;88142;-71
2023/06/20 00:27:55;;;;;;;7.22;5.43;;;20.10;99.90;20.10;100367.00;;;;4974829;28;118045;-71
2023/06/20 00:30:21;;;;;;;10.60;7.45;;;20.00;99.90;20.10;100362.00;;;;4975468;28;116154;-71
2023/06/20 00:32:46;;;;;;;6.68;5.65;;;20.00;99.90;20.10;100366.00;;;;4971276;28;110399;-71
2023/06/20 00:35:12;;;;;;;7.93;5.63;;;20.00;99.90;20.00;100366.00;;;;4971437;28;100920;-71
2023/06/20 00:37:38;;;;;;;6.93;6.28;;;19.90;99.90;19.90;100360.00;;;;4974200;28;87180;-71
2023/06/20 00:40:09;;;;;;;7.30;6.25;;;19.80;99.90;19.90;100360.00;;;;4972835;28;88114;-71
2023/06/20 00:42:35;;;;;;;8.25;6.53;;;19.80;99.90;19.90;100368.00;;;;4954308;28;89300;-72
2023/06/20 00:45:00;;;;;;;8.40;7.28;;;19.70;99.90;19.80;100362.00;;;;4968487;28;107447;-71
2023/06/20 00:47:27;;;;;;;9.35;7.00;;;19.70;99.90;19.70;100361.00;;;;4972043;28;112014;-72
2023/06/20 00:49:53;;;;;;;7.55;6.75;;;19.60;99.90;19.80;100364.00;;;;4972848;28;115738;-72
2023/06/20 00:52:23;;;;;;;12.52;7.75;;;19.60;99.90;19.70;100356.00;;;;4973332;28;109800;-71
2023/06/20 00:54:49;;;;;;;8.90;6.05;;;19.60;99.90;19.80;100350.00;;;;4974571;28;101299;-71
2023/06/20 00:57:17;;;;;;;10.18;6.70;;;19.70;99.90;19.70;100349.00;;;;4974162;28;87948;-72
2023/06/20 00:59:52;;;;;;;8.50;5.65;;;19.60;99.90;19.70;100345.00;;;;4976296;28;88229;-71
2023/06/20 01:02:21;;;;;;;9.13;6.45;;;19.60;99.90;19.70;100344.00;;;;4972190;28;109429;-71
2023/06/20 01:04:47;;;;;;;7.90;5.50;;;19.60;99.90;19.60;100339.00;;;;4974238;28;88366;-72
2023/06/20 01:07:18;;;;;;;7.25;6.03;;;19.50;99.90;19.60;100332.00;;;;4972206;28;88070;-72
2023/06/20 01:10:00;;;;;;;8.02;6.40;;;19.50;99.90;19.50;100340.00;;;;4954299;28;89417;-71
2023/06/20 01:12:53;;;;;;;6.45;5.68;;;19.50;99.90;19.50;100336.00;;;;4958074;28;87880;-71
2023/06/20 01:15:54;;;;;;;8.43;5.88;;;19.40;99.90;19.50;100335.00;;;;4976252;28;90795;-71
2023/06/20 01:18:44;;;;;;;11.48;6.93;;;19.40;99.90;19.40;100351.00;;;;4939777;28;112920;-71
2023/06/20 01:21:16;;;;;;;8.00;6.72;;;19.40;99.90;19.40;100344.00;;;;4973381;28;87816;-72
2023/06/20 01:24:03;;;;;;;9.68;6.72;;;19.30;99.90;19.40;100338.00;;;;4955763;28;87727;-71
2023/06/20 01:26:47;;;;;;;9.95;7.63;;;19.30;99.90;19.40;100335.00;;;;4957788;28;88123;-71
2023/06/20 01:29:17;;;;;;;12.35;6.97;;;19.30;99.90;19.40;100333.00;;;;4954866;28;108283;-71
2023/06/20 01:31:53;;;;;;;13.88;8.18;;;19.30;99.90;19.40;100333.00;;;;4939305;28;112536;-71
2023/06/20 01:34:23;;;;;;;12.52;6.75;;;19.30;99.90;19.30;100319.00;;;;4956332;28;87946;-71
2023/06/20 01:36:56;;;;;;;9.38;7.00;;;19.30;99.90;19.20;100315.00;;;;4971514;28;103963;-71
2023/06/20 01:39:32;;;;;;;8.45;6.07;;;19.20;99.90;19.20;100313.00;;;;4972780;28;88505;-71
2023/06/20 01:42:03;;;;;;;10.60;7.95;;;19.10;99.90;19.10;100316.00;;;;4956737;28;87959;-71
2023/06/20 01:44:31;;;;;;;9.13;7.82;;;19.10;99.90;19.10;100313.00;;;;4972729;28;88168;-71
2023/06/20 01:46:58;;;;;;;7.95;6.78;;;19.00;99.90;19.10;100311.00;;;;4955758;28;98844;-71
2023/06/20 01:49:25;;;;;;;8.57;6.70;;;19.00;99.90;19.10;100309.00;;;;4970465;28;118563;-71
2023/06/20 01:51:55;;;;;;;9.63;6.22;;;19.00;99.90;19.10;100310.00;;;;4958335;28;117597;-71
2023/06/20 01:54:27;;;;;;;10.82;6.97;;;19.00;99.90;19.10;100310.00;;;;4952347;28;87203;-71
2023/06/20 01:56:57;;;;;;;10.55;7.38;;;19.00;99.90;19.10;100314.00;;;;4951616;28;87969;-71
2023/06/20 01:59:25;;;;;;;10.93;7.10;;;19.00;99.90;19.00;100310.00;;;;4971379;28;88179;-71
2023/06/20 02:01:52;;;;;;;10.00;7.55;;;18.90;99.90;19.00;100298.00;;;;4971124;28;89879;-71
2023/06/20 02:04:20;;;;;;;9.70;7.07;;;18.90;99.90;19.00;100308.00;;;;4957448;28;87998;-71
2023/06/20 02:06:48;;;;;;;8.80;7.50;;;18.90;99.90;19.00;100310.00;;;;4972241;28;88134;-71
2023/06/20 02:09:16;;;;;;;9.60;7.47;;;18.90;99.90;19.00;100311.00;;;;4972514;28;118204;-71
2023/06/20 02:11:44;;;;;;;9.07;8.18;;;18.90;99.90;19.10;100304.00;;;;4972717;28;87977;-71
2023/06/20 02:14:10;;;;;;;8.90;7.63;;;18.90;99.90;19.10;100302.00;;;;4972151;28;96510;-71
2023/06/20 02:16:36;;;;;;;8.18;7.45;;;19.00;99.90;19.10;100290.00;;;;4952145;28;108854;-71
2023/06/20 02:19:07;;;;;;;11.77;7.40;;;19.00;99.90;19.10;100285.00;;;;4973119;28;87778;-71
2023/06/20 02:21:37;;;;;;;9.18;7.10;;;19.00;99.90;19.10;100284.00;;;;4973902;28;87982;-71
2023/06/20 02:24:06;;;;;;;9.57;7.38;;;19.00;99.90;19.10;100279.00;;;;4971518;28;87896;-70
2023/06/20 02:26:35;;;;;;;10.40;7.57;;;19.00;99.90;19.10;100283.00;;;;4974815;28;89048;-71
2023/06/20 02:29:06;;;;;;;9.30;6.80;;;18.90;99.90;19.00;100286.00;;;;4951950;28;89257;-71
2023/06/20 02:31:39;;;;;;;10.52;7.22;;;18.90;99.90;19.00;100289.00;;;;4958043;28;88292;-71
2023/06/20 02:34:08;;;;;;;12.25;8.55;;;18.90;99.90;19.00;100283.00;;;;4973016;28;102440;-71
2023/06/20 02:36:35;;;;;;;10.25;6.93;;;18.90;99.90;19.00;100288.00;;;;4958999;28;87867;-71
2023/06/20 02:39:04;;;;;;;11.73;7.57;;;18.90;99.90;19.00;100292.00;;;;4957527;28;88862;-71
2023/06/20 02:41:30;;;;;;;10.10;7.53;;;18.90;99.90;18.90;100291.00;;;;4957024;28;87844;-71
2023/06/20 02:43:56;;;;;;;10.45;7.80;;;18.90;99.90;18.90;100294.00;;;;4974980;28;110139;-70
2023/06/20 02:46:27;;;;;;;9.75;7.30;;;18.80;99.90;19.00;100285.00;;;;4975275;28;87791;-71
2023/06/20 02:49:11;;;;;;;10.90;7.65;;;18.80;99.90;18.90;100281.00;;;;4973554;28;88431;-71
2023/06/20 02:52:10;;;;;;;12.50;8.27;;;18.80;99.90;18.90;100280.00;;;;4955748;28;89016;-71
2023/06/20 02:55:13;;;;;;;10.13;7.70;;;18.80;99.90;18.90;100291.00;;;;4977424;28;88086;-71
2023/06/20 02:57:51;;;;;;;9.75;7.93;;;18.80;99.90;18.90;100294.00;;;;4972700;28;99623;-71
2023/06/20 03:00:18;;;;;;;8.52;7.30;;;18.70;99.90;18.80;100302.00;;;;4953325;28;111112;-71
2023/06/20 03:02:55;;;;;;;12.82;8.07;;;18.70;99.90;18.80;100299.00;;;;4952036;28;118060;-71
2023/06/20 03:05:22;;;;;;;12.77;7.80;;;18.70;99.90;18.80;100306.00;;;;4939197;28;94006;-71
2023/06/20 03:07:49;;;;;;;14.75;9.32;;;18.70;99.90;18.80;100310.00;;;;4954573;28;107680;-72
2023/06/20 03:10:15;;;;;;;10.38;7.00;;;18.70;99.90;18.80;100306.00;;;;4954160;28;116334;-71
2023/06/20 03:12:41;;;;;;;11.68;7.43;;;18.70;99.90;18.80;100306.00;;;;4969650;28;116286;-71
2023/06/20 03:15:08;;;;;;;9.55;7.38;;;18.70;99.90;18.80;100312.00;;;;4970947;28;110395;-71
2023/06/20 03:17:40;;;;;;;8.63;6.60;;;18.70;99.90;18.80;100321.00;;;;4972236;28;89980;-71
2023/06/20 03:20:08;;;;;;;8.68;7.25;;;18.70;99.90;18.80;100309.00;;;;4970599;28;116582;-72
2023/06/20 03:22:34;;;;;;;11.15;8.25;;;18.60;99.90;18.80;100312.00;;;;4956123;28;88137;-71
2023/06/20 03:24:59;;;;;;;11.85;7.53;;;18.70;99.90;18.80;100317.00;;;;4969176;28;110052;-72
2023/06/20 03:27:25;;;;;;;14.25;6.90;;;18.70;99.90;18.80;100325.00;;;;4977338;28;107910;-72
2023/06/20 03:29:51;;;;;;;9.35;6.63;;;18.70;99.90;18.80;100317.00;;;;4957766;28;117868;-71
2023/06/20 03:32:16;;;;;;;14.93;9.52;;;18.70;99.90;18.80;100331.00;;;;4971967;28;116731;-71
2023/06/20 03:34:42;;;;;;;12.10;8.30;;;18.70;99.90;18.90;100324.00;;;;4971443;28;109677;-71
2023/06/20 03:37:07;;;;;;;9.82;7.60;;;18.70;99.90;18.90;100337.00;;;;4972799;28;107378;-71
2023/06/20 03:39:39;;;;;;;12.23;8.25;;;18.80;99.90;18.90;100336.00;;;;4972672;28;111263;-71
2023/06/20 03:42:05;;;;;;;9.02;8.05;;;18.70;99.90;18.90;100343.00;;;;4973715;28;116038;-72
2023/06/20 03:44:31;;;;;;;11.38;8.70;;;18.70;99.90;18.90;100337.00;;;;4954391;28;102171;-71
2023/06/20 03:46:56;;;;;;;9.73;7.40;;;18.80;99.90;18.90;100339.00;;;;4973057;28;108573;-72
2023/06/20 03:49:22;;;;;;;10.63;8.18;;;18.80;99.90;18.90;100343.00;;;;4955337;28;117501;-71
2023/06/20 03:51:48;;;;;;;13.52;9.32;;;18.90;99.90;19.00;100348.00;;;;4934503;28;117626;-71
2023/06/20 03:54:13;;;;;;;11.38;8.77;;;18.90;99.90;19.00;100344.00;;;;4950840;28;88010;-71
2023/06/20 03:56:39;;;;;;;13.80;7.10;;;18.80;99.90;19.00;100342.00;;;;4946570;28;109076;-71
2023/06/20 03:59:05;;;;;;;10.40;8.95;;;18.90;99.90;19.10;100343.00;;;;4972834;28;116412;-71
2023/06/20 04:01:30;;;;;;;11.98;8.40;;;18.80;99.90;19.20;100357.00;;;;4971531;28;116415;-71
2023/06/20 04:03:56;;;;;;;13.82;10.07;;;19.00;99.90;19.30;100351.00;;;;4973290;28;109737;-71
2023/06/20 04:06:29;;;;;;;10.95;8.10;;;19.10;99.90;19.40;100352.00;;;;4970288;28;89069;-71
2023/06/20 04:08:55;;;;;;;11.88;7.43;;;19.20;99.90;19.50;100355.00;;;;4972626;28;87897;-71
2023/06/20 04:11:21;;;;;;;14.25;8.48;;;19.30;99.90;19.60;100342.00;;;;4959177;28;109894;-72
2023/06/20 04:13:46;;;;;;;12.07;8.77;;;19.40;99.90;19.80;100359.00;;;;4971877;28;110111;-71
2023/06/20 04:16:12;;;;;;;12.05;8.07;;;19.60;99.90;19.90;100355.00;;;;4969854;28;108158;-71
2023/06/20 04:18:38;;;;;;;11.85;8.85;;;19.70;99.90;20.00;100354.00;;;;4971362;28;118591;-71
2023/06/20 04:21:03;;;;;;;10.43;7.35;;;19.80;99.90;20.10;100361.00;;;;4976910;28;88292;-71
2023/06/20 04:23:29;;;;;;;12.98;9.07;;;19.90;99.90;20.20;100366.00;;;;4974258;28;108662;-71
2023/06/20 04:25:55;;;;;;;9.13;7.35;;;20.00;99.90;20.30;100365.00;;;;4960724;28;108634;-71
2023/06/20 04:28:20;;;;;;;11.88;8.70;;;20.10;99.90;20.40;100360.00;;;;4980916;28;100289;-71
2023/06/20 04:30:46;;;;;;;11.90;8.82;;;20.20;99.90;20.60;100367.00;;;;4975621;28;117300;-71
2023/06/20 04:33:12;;;;;;;10.05;8.57;;;20.30;99.90;20.80;100358.00;;;;4973743;28;87835;-71
2023/06/20 04:35:40;;;;;;;8.85;7.78;;;20.50;99.90;20.90;100358.00;;;;4974082;28;107128;-71
2023/06/20 04:38:06;;;;;;;9.18;7.78;;;20.70;99.90;21.20;100368.00;;;;4975844;28;89270;-71
2023/06/20 04:40:32;;;;;;;8.75;7.05;;;20.90;99.90;21.40;100362.00;;;;4975081;28;105558;-71
2023/06/20 04:42:57;;;;;;;9.75;8.07;;;21.10;99.90;21.60;100371.00;;;;4974180;28;109875;-71
2023/06/20 04:45:23;;;;;;;10.75;8.02;;;21.30;99.90;21.70;100374.00;;;;4972767;28;108067;-71
2023/06/20 04:47:53;;;;;;;7.97;6.85;;;21.50;99.90;21.90;100385.00;;;;4970389;28;88352;-71
2023/06/20 04:50:18;;;;;;;11.55;8.05;;;21.60;99.90;22.10;100374.00;;;;4970664;28;87835;-71
2023/06/20 04:52:44;;;;;;;9.85;7.85;;;21.80;99.90;22.20;100373.00;;;;4972334;28;111021;-71
2023/06/20 04:55:10;;;;;;;10.73;6.93;;;21.90;99.90;22.30;100376.00;;;;4966855;28;108797;-71
2023/06/20 04:57:36;;;;;;;8.10;6.75;;;22.00;99.90;22.40;100371.00;;;;4955513;28;88335;-71
2023/06/20 05:00:07;;;;;;;7.78;7.00;;;22.10;99.90;22.40;100363.00;;;;4968225;28;88706;-71
2023/06/20 05:02:32;;;;;;;10.40;6.32;;;22.20;99.90;22.50;100374.00;;;;4969183;28;88032;-71
2023/06/20 05:04:58;;;;;;;10.18;7.22;;;22.30;99.90;22.60;100372.00;;;;4967388;28;109003;-71
2023/06/20 05:07:24;;;;;;;7.85;6.25;;;22.40;99.90;22.70;100369.00;;;;4970244;28;118239;-71
2023/06/20 05:09:50;;;;;;;11.95;7.40;;;22.40;99.90;22.70;100369.00;;;;4965455;28;116058;-71
2023/06/20 05:12:16;;;;;;;10.60;7.65;;;22.50;99.90;22.80;100376.00;;;;4970795;28;87103;-71
2023/06/20 05:14:42;;;;;;;9.82;6.45;;;22.60;99.90;22.90;100375.00;;;;4969543;28;108050;-71
2023/06/20 05:17:08;;;;;;;10.80;6.22;;;22.60;99.90;23.00;100371.00;;;;4971674;28;88853;-71
2023/06/20 05:19:33;;;;;;;10.35;6.60;;;22.70;99.90;23.00;100363.00;;;;4952475;28;115301;-71
2023/06/20 05:21:59;;;;;;;10.98;6.93;;;22.80;99.90;23.10;100365.00;;;;4972406;28;98024;-71
2023/06/20 05:24:25;;;;;;;10.15;6.95;;;22.80;99.90;23.20;100376.00;;;;4974382;28;108893;-71
2023/06/20 05:26:50;;;;;;;8.73;5.70;;;22.90;99.90;23.30;100377.00;;;;4952312;28;116286;-71
2023/06/20 05:29:16;;;;;;;6.40;5.13;;;23.00;99.90;23.40;100379.00;;;;4970658;28;118352;-71
2023/06/20 05:31:42;;;;;;;8.50;5.75;;;23.10;99.90;23.50;100384.00;;;;4972845;28;110226;-70
2023/06/20 05:34:08;;;;;;;11.00;6.75;;;23.20;99.90;23.60;100376.00;;;;4972090;28;108974;-70
2023/06/20 05:36:34;;;;;;;6.80;5.15;;;23.30;99.90;23.70;100374.00;;;;4971132;28;87839;-72
2023/06/20 05:38:59;;;;;;;6.65;4.97;;;23.40;99.90;23.90;100384.00;;;;4971633;28;114653;-71
2023/06/20 05:41:26;;;;;;;7.43;5.32;;;23.50;99.90;24.00;100384.00;;;;4977618;28;87983;-72
2023/06/20 05:43:51;;;;;;;8.65;6.15;;;23.70;99.90;24.10;100385.00;;;;4972415;28;88770;-72
2023/06/20 05:46:17;;;;;;;10.57;7.03;;;23.80;99.90;24.20;100393.00;;;;4973777;28;113378;-71
2023/06/20 05:48:44;;;;;;;6.28;4.75;;;23.90;99.90;24.30;100396.00;;;;4972692;28;117272;-71
2023/06/20 05:51:14;;;;;;;7.53;5.20;;;24.00;99.90;24.50;100400.00;;;;4970338;28;87773;-71
2023/06/20 05:53:41;;;;;;;7.80;5.53;;;24.10;99.70;24.60;100405.00;;;;4974295;28;101591;-71
2023/06/20 05:56:11;;;;;;;5.53;4.53;;;24.30;99.50;24.80;100404.00;;;;4972225;28;88266;-72
2023/06/20 05:58:37;;;;;;;6.15;5.20;;;24.40;99.00;24.90;100398.00;;;;4959523;28;117238;-71
2023/06/20 06:01:04;;;;;;;6.55;5.30;;;24.60;98.70;25.00;100388.00;;;;4971552;28;86923;-71
2023/06/20 06:03:32;;;;;;;8.70;6.05;;;24.70;98.20;25.10;100393.00;;;;4972229;28;88520;-71
2023/06/20 06:05:58;;;;;;;6.63;5.57;;;24.80;97.70;25.10;100385.00;;;;4973155;28;99996;-72
2023/06/20 06:08:25;;;;;;;6.15;5.03;;;24.80;96.80;25.10;100387.00;;;;4975598;28;88636;-71
2023/06/20 06:10:52;;;;;;;6.07;5.45;;;24.80;96.70;25.20;100393.00;;;;4969658;28;89029;-71
2023/06/20 06:13:18;;;;;;;5.78;4.53;;;24.90;96.70;25.30;100398.00;;;;4975158;28;88724;-71
2023/06/20 06:15:43;;;;;;;7.82;5.25;;;25.00;96.60;25.40;100391.00;;;;4970686;28;106846;-72
2023/06/20 06:18:09;;;;;;;6.00;4.65;;;25.10;96.50;25.50;100395.00;;;;4935203;28;116142;-71
2023/06/20 06:20:35;;;;;;;8.27;5.38;;;25.10;96.10;25.50;100390.00;;;;4971209;28;87836;-71
2023/06/20 06:23:02;;;;;;;5.97;5.00;;;25.20;96.00;25.60;100398.00;;;;4972061;28;87962;-72
2023/06/20 06:25:28;;;;;;;6.88;5.03;;;25.30;95.70;25.60;100399.00;;;;4973000;28;87197;-71
2023/06/20 06:27:53;;;;;;;7.53;5.75;;;25.30;95.60;25.70;100392.00;;;;4978151;28;87947;-71
2023/06/20 06:30:19;;;;;;;13.95;6.50;;;25.40;95.50;25.80;100396.00;;;;4971224;28;87828;-73
2023/06/20 06:32:47;;;;;;;5.88;4.75;;;25.40;95.60;25.80;100397.00;;;;4952645;28;107526;-71
2023/06/20 06:35:15;;;;;;;7.25;5.22;;;25.50;95.20;26.00;100402.00;;;;4992947;28;88305;-72
2023/06/20 06:37:41;;;;;;;7.18;5.35;;;25.60;95.20;26.10;100401.00;;;;4972122;28;102370;-71
2023/06/20 06:40:09;;;;;;;7.72;5.35;;;25.70;95.00;26.20;100397.00;;;;4971908;28;87689;-71
2023/06/20 06:42:35;;;;;;;6.38;4.38;;;25.90;94.70;26.30;100400.00;;;;4972196;28;87977;-71
2023/06/20 06:45:01;;;;;;;8.23;5.78;;;25.90;94.40;26.40;100400.00;;;;4972706;28;102778;-72
2023/06/20 06:47:27;;;;;;;9.80;5.18;;;26.00;94.20;26.50;100394.00;;;;4955075;28;103794;-72
2023/06/20 06:49:52;;;;;;;6.10;5.05;;;26.10;94.10;26.60;100400.00;;;;4971453;28;111142;-71
2023/06/20 06:52:18;;;;;;;7.65;5.90;;;26.30;94.00;26.70;100402.00;;;;4968825;28;108783;-73
2023/06/20 06:54:47;;;;;;;6.90;5.65;;;26.40;93.80;26.80;100411.00;;;;4972794;28;116465;-71
2023/06/20 06:57:13;;;;;;;6.85;4.70;;;26.40;93.50;26.90;100401.00;;;;4972185;28;118460;-71
2023/06/20 06:59:38;;;;;;;8.73;5.60;;;26.60;93.20;27.10;100411.00;;;;4974929;28;88002;-71
2023/06/20 07:02:05;;;;;;;6.90;5.00;;;26.70;93.00;27.20;100408.00;;;;4979922;28;87863;-72
2023/06/20 07:04:32;;;;;;;6.50;4.95;;;26.80;92.80;27.40;100407.00;;;;4964338;28;90245;-71
2023/06/20 07:06:58;;;;;;;14.63;5.88;;;27.00;92.40;27.50;100410.00;;;;4976768;28;105542;-72
2023/06/20 07:09:23;;;;;;;5.38;4.03;;;27.10;92.20;27.70;100413.00;;;;4974090;28;88316;-71
2023/06/20 07:11:49;;;;;;;5.55;4.63;;;27.30;91.70;27.80;100408.00;;;;4976243;28;108432;-72
2023/06/20 07:14:15;;;;;;;7.32;4.43;;;27.40;90.80;27.80;100410.00;;;;4979428;28;87401;-72
2023/06/20 07:16:41;;;;;;;6.32;4.95;;;27.50;90.20;27.80;100407.00;;;;4980837;28;116159;-71
2023/06/20 07:19:07;;;;;;;5.65;4.65;;;27.50;89.10;27.80;100410.00;;;;4976294;28;88041;-71
2023/06/20 07:21:32;;;;;;;7.43;4.65;;;27.50;88.70;28.00;100402.00;;;;4971089;28;107316;-70
2023/06/20 07:23:58;;;;;;;5.70;4.10;;;27.60;88.80;28.20;100408.00;;;;4977074;28;100879;-72
2023/06/20 07:26:24;;;;;;;6.32;4.60;;;27.90;88.20;28.50;100424.00;;;;4971216;28;116504;-71
2023/06/20 07:28:49;;;;;;;8.30;5.15;;;28.00;86.90;28.70;100415.00;;;;4977079;28;87981;-72
2023/06/20 07:31:19;;;;;;;6.68;5.03;;;28.30;86.00;29.00;100421.00;;;;4958900;28;108413;-71
2023/06/20 07:33:45;;;;;;;7.47;5.05;;;28.50;85.00;29.20;100422.00;;;;4974640;28;91263;-71
2023/06/20 07:36:11;;;;;;;5.22;3.88;;;28.70;84.50;29.40;100418.00;;;;4972707;28;88063;-72
2023/06/20 07:38:37;;;;;;;6.72;4.63;;;29.00;83.90;29.70;100420.00;;;;4972744;28;94562;-75
2023/06/20 07:41:03;;;;;;;4.93;3.78;;;29.20;83.10;29.90;100429.00;;;;4972337;28;95787;-75
2023/06/20 07:43:29;;;;;;;4.47;3.47;;;29.40;81.90;30.00;100428.00;;;;4970980;28;117313;-76
2023/06/20 07:45:54;;;;;;;5.82;4.43;;;29.60;80.70;30.10;100435.00;;;;4969527;28;89945;-75
2023/06/20 07:48:24;;;;;;;5.15;3.17;;;29.70;79.40;30.20;100437.00;;;;4972376;28;87874;-73
2023/06/20 07:50:50;;;;;;;5.97;3.63;;;29.80;77.60;30.10;100439.00;;;;4974326;28;88263;-75
2023/06/20 07:53:15;;;;;;;5.57;3.53;;;29.80;75.90;30.00;100441.00;;;;4957386;28;90475;-74
2023/06/20 07:55:41;;;;;;;6.82;4.32;;;29.70;75.50;30.00;100442.00;;;;4972827;28;117201;-76
2023/06/20 07:58:08;;;;;;;10.10;5.50;;;29.70;76.30;29.90;100447.00;;;;4975308;28;110014;-75
2023/06/20 08:00:33;;;;;;;6.90;4.97;;;29.60;77.40;29.90;100444.00;;;;4957388;28;87615;-74
2023/06/20 08:02:59;;;;;;;8.25;5.35;;;29.60;78.10;29.70;100446.00;;;;4973756;28;115788;-75
2023/06/20 08:05:24;;;;;;;10.98;5.43;;;29.50;78.60;29.60;100448.00;;;;4948355;28;115837;-74
2023/06/20 08:07:50;;;;;;;6.45;4.45;;;29.30;78.90;29.50;100440.00;;;;4952347;28;87964;-75
2023/06/20 08:10:16;;;;;;;8.50;5.85;;;29.20;79.40;29.30;100444.00;;;;4920197;28;107509;-73
2023/06/20 08:12:41;;;;;;;7.90;5.68;;;29.10;79.60;29.10;100445.00;;;;4955573;28;88289;-75
2023/06/20 08:15:08;;;;;;;7.15;4.65;;;28.90;79.70;29.00;100446.00;;;;4953325;28;116584;-74
2023/06/20 08:17:33;;;;;;;6.95;4.65;;;28.80;80.20;28.90;100456.00;;;;4946173;28;87848;-74
2023/06/20 08:19:59;;;;;;;9.52;6.38;;;28.70;80.70;28.80;100455.00;;;;4951473;28;107328;-74
2023/06/20 08:22:26;;;;;;;7.45;5.45;;;28.60;81.10;28.70;100462.00;;;;4938202;28;88045;-76
2023/06/20 08:24:52;;;;;;;9.80;6.03;;;28.50;81.40;28.60;100456.00;;;;4939264;28;106287;-76
2023/06/20 08:27:18;;;;;;;8.32;5.60;;;28.30;81.60;28.50;100462.00;;;;4938344;28;87356;-75
2023/06/20 08:29:43;;;;;;;7.50;5.45;;;28.20;81.90;28.40;100463.00;;;;4948524;28;108811;-75
2023/06/20 08:32:09;;;;;;;8.70;5.75;;;28.10;82.20;28.30;100469.00;;;;4928539;28;92746;-73
2023/06/20 08:34:35;;;;;;;7.22;6.13;;;28.00;82.60;28.20;100471.00;;;;4956859;28;88748;-73
2023/06/20 08:37:02;;;;;;;12.40;6.82;;;27.90;82.80;28.10;100476.00;;;;4953781;28;108425;-73
2023/06/20 08:39:29;;;;;;;12.25;5.93;;;27.80;83.20;28.00;100479.00;;;;4956526;28;88257;-77
2023/06/20 08:41:54;;;;;;;8.73;5.45;;;27.70;83.60;27.90;100476.00;;;;4951854;28;88283;-75
2023/06/20 08:44:20;;;;;;;5.70;4.97;;;27.70;83.50;27.90;100474.00;;;;4933480;28;101138;-75
2023/06/20 08:46:46;;;;;;;5.30;4.55;;;27.70;83.60;28.00;100479.00;;;;4938774;28;110641;-75
2023/06/20 08:49:14;;;;;;;5.68;4.65;;;27.70;83.80;28.10;100476.00;;;;4922103;28;87892;-76
2023/06/20 08:51:45;;;;;;;7.47;5.35;;;27.70;83.50;28.10;100481.00;;;;4940671;28;88050;-76
2023/06/20 08:54:16;;;;;;;5.72;5.13;;;27.80;83.10;28.20;100475.00;;;;4937264;28;88037;-76
2023/06/20 08:56:43;;;;;;;8.77;5.72;;;27.80;83.00;28.20;100485.00;;;;4953251;28;87984;-76
2023/06/20 08:59:09;;;;;;;12.30;5.45;;;27.90;82.20;28.30;100480.00;;;;4933264;28;88654;-75
2023/06/20 09:01:37;;;;;;;8.45;5.05;;;28.00;82.40;28.40;100477.00;;;;4938034;28;116763;-75
2023/06/20 09:04:03;;;;;;;5.03;4.07;;;28.00;82.00;28.40;100472.00;;;;4934188;28;87911;-76
2023/06/20 09:06:37;;;;;;;6.28;4.00;;;28.10;82.10;28.50;100476.00;;;;4968669;28;110586;-73
2023/06/20 09:09:05;;;;;;;7.28;5.38;;;28.10;81.50;28.50;100485.00;;;;4972602;28;87884;-73
2023/06/20 09:11:35;;;;;;;4.68;3.90;;;28.20;81.50;28.60;100477.00;;;;4972654;28;88658;-74
2023/06/20 09:14:01;;;;;;;5.60;4.70;;;28.20;81.50;28.60;100474.00;;;;4950206;28;88105;-73
2023/06/20 09:16:28;;;;;;;5.05;3.88;;;28.30;81.40;28.60;100470.00;;;;4972561;28;87116;-73
2023/06/20 09:18:59;;;;;;;7.97;4.93;;;28.30;81.00;28.60;100473.00;;;;4972664;28;87843;-74
2023/06/20 09:21:25;;;;;;;5.20;4.13;;;28.30;81.00;28.60;100481.00;;;;4956612;28;87773;-73
2023/06/20 09:24:02;;;;;;;5.30;4.22;;;28.30;81.00;28.70;100476.00;;;;4966309;28;117656;-74
2023/06/20 09:26:30;;;;;;;5.32;3.85;;;28.40;80.70;28.70;100485.00;;;;4958198;28;87924;-73
2023/06/20 09:29:12;;;;;;;5.40;4.28;;;28.30;80.70;28.70;100485.00;;;;4976189;28;88943;-73
2023/06/20 09:31:47;;;;;;;5.13;4.60;;;28.30;80.70;28.70;100484.00;;;;4956558;28;88075;-73
2023/06/20 09:34:16;;;;;;;6.22;3.97;;;28.40;80.80;28.70;100480.00;;;;4960882;28;87996;-74
2023/06/20 09:37:08;;;;;;;7.68;3.92;;;28.40;80.70;28.60;100484.00;;;;4983687;28;87793;-73
2023/06/20 09:39:34;;;;;;;6.20;4.68;;;28.30;80.70;28.50;100478.00;;;;4974712;28;100077;-74
2023/06/20 09:42:00;;;;;;;5.90;3.95;;;28.20;80.80;28.50;100476.00;;;;4978605;28;88801;-74
2023/06/20 09:44:27;;;;;;;6.13;4.13;;;28.20;80.60;28.40;100476.00;;;;4958589;28;87948;-76
2023/06/20 09:46:53;;;;;;;6.32;4.28;;;27.70;79.20;28.30;100474.00;;;;4951593;28;87892;-76
2023/06/20 09:49:19;;;;;;;4.85;3.80;;;28.00;78.30;28.20;100487.00;;;;4968165;28;107585;-76
2023/06/20 09:51:49;;;;;;;7.65;4.13;;;28.00;78.10;28.10;100480.00;;;;4973575;28;119209;-75
2023/06/20 09:54:28;;;;;;;4.88;3.83;;;27.90;78.20;28.10;100493.00;;;;4969157;28;87775;-74
2023/06/20 09:57:04;;;;;;;4.40;3.55;;;27.80;78.00;28.00;100499.00;;;;4953558;28;87850;-75
2023/06/20 09:59:32;;;;;;;6.82;3.63;;;27.80;78.20;28.00;100496.00;;;;4964663;28;88085;-74
2023/06/20 10:01:59;;;;;;;6.90;4.07;;;27.70;78.10;28.00;100491.00;;;;4973875;28;88033;-74
2023/06/20 10:04:26;;;;;;;5.32;3.17;;;27.70;78.40;28.10;100493.00;;;;4958578;28;99578;-73
2023/06/20 10:06:55;;;;;;;6.57;3.75;;;27.80;78.70;28.10;100496.00;;;;4971586;28;108865;-76
2023/06/20 10:09:20;;;;;;;3.45;3.15;;;27.80;78.70;28.10;100496.00;;;;4975303;28;89326;-76
2023/06/20 10:11:47;;;;;;;3.65;3.10;;;27.80;78.80;28.20;100502.00;;;;4975972;28;116343;-76
2023/06/20 10:14:14;;;;;;;4.40;3.40;;;27.90;79.10;28.20;100502.00;;;;4966371;28;115260;-75
2023/06/20 10:16:39;;;;;;;4.35;3.95;;;27.80;79.10;28.20;100495.00;;;;4961893;28;87755;-76
2023/06/20 10:19:19;;;;;;;5.30;3.60;;;27.90;79.30;28.20;100493.00;;;;4969781;28;108968;-74
2023/06/20 10:21:59;;;;;;;4.65;3.42;;;27.90;79.30;28.20;100499.00;;;;4955847;28;87841;-74
2023/06/20 10:24:30;;;;;;;8.70;4.65;;;27.90;79.40;28.20;100504.00;;;;4955060;28;90056;-74
2023/06/20 10:26:59;;;;;;;5.15;4.18;;;27.90;79.30;28.30;100503.00;;;;4975854;28;87560;-75
2023/06/20 10:29:27;;;;;;;5.90;3.80;;;27.90;79.40;28.30;100497.00;;;;4956971;28;88066;-75
2023/06/20 10:32:13;;;;;;;4.57;3.97;;;27.90;79.50;28.20;100492.00;;;;4958496;28;87046;-74
2023/06/20 10:34:39;;;;;;;11.23;5.03;;;28.00;79.60;28.20;100485.00;;;;4970967;28;115667;-75
2023/06/20 10:37:20;;;;;;;9.27;4.95;;;27.90;79.60;28.10;100476.00;;;;4974431;28;88148;-75
2023/06/20 10:39:57;;;;;;;5.22;3.63;;;27.90;79.90;28.20;100478.00;;;;4975086;28;88782;-74
2023/06/20 10:42:34;;;;;;;7.47;4.82;;;27.90;80.40;28.20;100486.00;;;;4951146;28;88849;-74
2023/06/20 10:45:25;;;;;;;5.65;4.35;;;27.90;80.50;28.30;100489.00;;;;4976149;28;87779;-74
2023/06/20 10:47:53;;;;;;;5.97;4.28;;;27.90;80.60;28.40;100491.00;;;;4956160;28;88001;-74